Terminal Aerodrome Forecast
Issued by NWS

Home | Current Version | Previous Version | Text Only | Print | Product List | Glossary On
Versions: 1 2 3 4 5 6 7 8 9 10 11 12 13 14 15
000
FTUS46 KSGX 031726
TAFONT
TAF
KONT 031726Z 0318/0424 27005KT P6SM SCT200
     FM032100 25011G18KT P6SM SCT200
     FM040400 25007KT P6SM SKC
     FM041200 VRB04KT 4SM BR SCT006
     FM041600 VRB04KT 6SM HZ SKC
     FM042100 25011G18KT P6SM SKC=

USA.gov is the U.S. government's official web portal to all federal, state and local government web resources and services.